sensor_id;sensor_type;location;lat;lon;timestamp;P1;durP1;ratioP1;P2;durP2;ratioP2
37805;SDS011;25082;50.870;0.022;2023-10-09T00:00:11;6.22;;;4.05;;
37805;SDS011;25082;50.870;0.022;2023-10-09T00:02:59;5.68;;;3.30;;
37805;SDS011;25082;50.870;0.022;2023-10-09T00:05:35;6.28;;;4.05;;
37805;SDS011;25082;50.870;0.022;2023-10-09T00:08:11;5.47;;;3.50;;
37805;SDS011;25082;50.870;0.022;2023-10-09T00:10:56;5.18;;;3.60;;
37805;SDS011;25082;50.870;0.022;2023-10-09T00:13:24;6.53;;;3.63;;
37805;SDS011;25082;50.870;0.022;2023-10-09T00:15:58;4.85;;;3.47;;
37805;SDS011;25082;50.870;0.022;2023-10-09T00:18:33;5.38;;;3.28;;
37805;SDS011;25082;50.870;0.022;2023-10-09T00:21:00;5.95;;;4.05;;
37805;SDS011;25082;50.870;0.022;2023-10-09T00:23:35;7.47;;;4.22;;
37805;SDS011;25082;50.870;0.022;2023-10-09T00:26:01;5.35;;;3.45;;
37805;SDS011;25082;50.870;0.022;2023-10-09T00:28:38;4.78;;;3.00;;
37805;SDS011;25082;50.870;0.022;2023-10-09T00:33:40;6.97;;;3.80;;
37805;SDS011;25082;50.870;0.022;2023-10-09T00:36:09;5.30;;;3.22;;
37805;SDS011;25082;50.870;0.022;2023-10-09T00:38:36;6.45;;;4.03;;
37805;SDS011;25082;50.870;0.022;2023-10-09T00:41:05;5.85;;;3.80;;
37805;SDS011;25082;50.870;0.022;2023-10-09T00:43:33;6.13;;;4.35;;
37805;SDS011;25082;50.870;0.022;2023-10-09T00:46:01;5.18;;;3.83;;
37805;SDS011;25082;50.870;0.022;2023-10-09T00:48:28;5.80;;;3.88;;
37805;SDS011;25082;50.870;0.022;2023-10-09T00:51:02;5.68;;;3.33;;
37805;SDS011;25082;50.870;0.022;2023-10-09T00:53:40;5.60;;;3.50;;
37805;SDS011;25082;50.870;0.022;2023-10-09T00:56:08;5.78;;;3.45;;
37805;SDS011;25082;50.870;0.022;2023-10-09T00:58:58;5.30;;;3.15;;
37805;SDS011;25082;50.870;0.022;2023-10-09T01:01:40;5.68;;;3.25;;
37805;SDS011;25082;50.870;0.022;2023-10-09T01:04:10;6.55;;;3.20;;
37805;SDS011;25082;50.870;0.022;2023-10-09T01:09:12;5.80;;;3.45;;
37805;SDS011;25082;50.870;0.022;2023-10-09T01:11:40;7.38;;;4.03;;
37805;SDS011;25082;50.870;0.022;2023-10-09T01:14:24;5.05;;;3.72;;
37805;SDS011;25082;50.870;0.022;2023-10-09T01:16:49;4.72;;;3.45;;
37805;SDS011;25082;50.870;0.022;2023-10-09T01:19:19;5.13;;;3.50;;
37805;SDS011;25082;50.870;0.022;2023-10-09T01:21:48;5.05;;;3.20;;
37805;SDS011;25082;50.870;0.022;2023-10-09T01:24:15;5.32;;;3.72;;
37805;SDS011;25082;50.870;0.022;2023-10-09T01:26:41;6.10;;;3.70;;
37805;SDS011;25082;50.870;0.022;2023-10-09T01:29:20;4.78;;;3.42;;
37805;SDS011;25082;50.870;0.022;2023-10-09T01:31:50;7.57;;;3.22;;
37805;SDS011;25082;50.870;0.022;2023-10-09T01:34:30;5.32;;;3.75;;
37805;SDS011;25082;50.870;0.022;2023-10-09T01:37:17;7.00;;;4.10;;
37805;SDS011;25082;50.870;0.022;2023-10-09T01:39:47;5.15;;;3.63;;
37805;SDS011;25082;50.870;0.022;2023-10-09T01:42:14;5.68;;;3.45;;
37805;SDS011;25082;50.870;0.022;2023-10-09T01:44:55;7.95;;;3.88;;
37805;SDS011;25082;50.870;0.022;2023-10-09T01:47:23;7.35;;;3.58;;
37805;SDS011;25082;50.870;0.022;2023-10-09T01:49:51;5.60;;;3.30;;
37805;SDS011;25082;50.870;0.022;2023-10-09T01:52:19;5.50;;;3.70;;
37805;SDS011;25082;50.870;0.022;2023-10-09T01:54:45;5.68;;;3.22;;
37805;SDS011;25082;50.870;0.022;2023-10-09T01:57:16;6.15;;;3.55;;
37805;SDS011;25082;50.870;0.022;2023-10-09T01:59:50;5.35;;;3.55;;
37805;SDS011;25082;50.870;0.022;2023-10-09T02:02:19;5.97;;;3.42;;
37805;SDS011;25082;50.870;0.022;2023-10-09T02:07:31;4.35;;;3.00;;
37805;SDS011;25082;50.870;0.022;2023-10-09T02:10:06;6.78;;;4.22;;
37805;SDS011;25082;50.870;0.022;2023-10-09T02:12:51;5.55;;;3.80;;
37805;SDS011;25082;50.870;0.022;2023-10-09T02:15:26;5.32;;;3.35;;
37805;SDS011;25082;50.870;0.022;2023-10-09T02:18:07;6.45;;;3.60;;
37805;SDS011;25082;50.870;0.022;2023-10-09T02:20:43;5.78;;;3.70;;
37805;SDS011;25082;50.870;0.022;2023-10-09T02:23:10;7.18;;;3.55;;
37805;SDS011;25082;50.870;0.022;2023-10-09T02:25:46;6.13;;;3.30;;
37805;SDS011;25082;50.870;0.022;2023-10-09T02:28:12;4.53;;;3.30;;
37805;SDS011;25082;50.870;0.022;2023-10-09T02:30:44;5.45;;;3.88;;
37805;SDS011;25082;50.870;0.022;2023-10-09T02:33:14;5.85;;;3.88;;
37805;SDS011;25082;50.870;0.022;2023-10-09T02:38:16;5.97;;;4.20;;
37805;SDS011;25082;50.870;0.022;2023-10-09T02:40:42;4.43;;;3.17;;
37805;SDS011;25082;50.870;0.022;2023-10-09T02:43:27;5.13;;;3.47;;
37805;SDS011;25082;50.870;0.022;2023-10-09T02:45:53;5.10;;;3.83;;
37805;SDS011;25082;50.870;0.022;2023-10-09T02:48:19;5.82;;;3.60;;
37805;SDS011;25082;50.870;0.022;2023-10-09T02:50:46;6.22;;;3.70;;
37805;SDS011;25082;50.870;0.022;2023-10-09T02:53:12;5.45;;;3.47;;
37805;SDS011;25082;50.870;0.022;2023-10-09T02:55:44;5.78;;;4.03;;
37805;SDS011;25082;50.870;0.022;2023-10-09T02:58:27;5.68;;;3.63;;
37805;SDS011;25082;50.870;0.022;2023-10-09T03:00:53;7.85;;;4.45;;
37805;SDS011;25082;50.870;0.022;2023-10-09T03:03:19;4.88;;;3.45;;
37805;SDS011;25082;50.870;0.022;2023-10-09T03:05:46;6.35;;;3.80;;
37805;SDS011;25082;50.870;0.022;2023-10-09T03:08:11;7.85;;;4.60;;
37805;SDS011;25082;50.870;0.022;2023-10-09T03:10:37;5.45;;;3.42;;
37805;SDS011;25082;50.870;0.022;2023-10-09T03:13:04;6.18;;;4.07;;
37805;SDS011;25082;50.870;0.022;2023-10-09T03:15:31;6.70;;;4.13;;
37805;SDS011;25082;50.870;0.022;2023-10-09T03:18:01;8.40;;;4.68;;
37805;SDS011;25082;50.870;0.022;2023-10-09T03:20:29;3.97;;;3.13;;
37805;SDS011;25082;50.870;0.022;2023-10-09T03:22:59;6.80;;;4.10;;
37805;SDS011;25082;50.870;0.022;2023-10-09T03:25:26;6.18;;;3.75;;
37805;SDS011;25082;50.870;0.022;2023-10-09T03:27:53;6.35;;;4.05;;
37805;SDS011;25082;50.870;0.022;2023-10-09T03:30:21;5.63;;;3.83;;
37805;SDS011;25082;50.870;0.022;2023-10-09T03:32:50;4.70;;;3.40;;
37805;SDS011;25082;50.870;0.022;2023-10-09T03:35:20;7.25;;;3.70;;
37805;SDS011;25082;50.870;0.022;2023-10-09T03:37:54;7.70;;;4.03;;
37805;SDS011;25082;50.870;0.022;2023-10-09T03:40:36;6.35;;;3.58;;
37805;SDS011;25082;50.870;0.022;2023-10-09T03:43:13;5.15;;;3.47;;
37805;SDS011;25082;50.870;0.022;2023-10-09T03:45:39;6.15;;;3.50;;
37805;SDS011;25082;50.870;0.022;2023-10-09T03:48:17;4.78;;;3.40;;
37805;SDS011;25082;50.870;0.022;2023-10-09T03:50:46;5.30;;;3.53;;
37805;SDS011;25082;50.870;0.022;2023-10-09T03:53:12;5.53;;;3.90;;
37805;SDS011;25082;50.870;0.022;2023-10-09T03:55:39;5.60;;;3.70;;
37805;SDS011;25082;50.870;0.022;2023-10-09T03:58:06;5.25;;;3.35;;
37805;SDS011;25082;50.870;0.022;2023-10-09T04:00:32;6.25;;;3.97;;
37805;SDS011;25082;50.870;0.022;2023-10-09T04:03:06;7.75;;;3.67;;
37805;SDS011;25082;50.870;0.022;2023-10-09T04:05:32;9.93;;;4.10;;
37805;SDS011;25082;50.870;0.022;2023-10-09T04:07:57;5.78;;;3.80;;
37805;SDS011;25082;50.870;0.022;2023-10-09T04:10:26;7.15;;;4.50;;
37805;SDS011;25082;50.870;0.022;2023-10-09T04:13:08;5.40;;;3.83;;
37805;SDS011;25082;50.870;0.022;2023-10-09T04:15:37;4.38;;;3.03;;
37805;SDS011;25082;50.870;0.022;2023-10-09T04:18:03;7.22;;;4.15;;
37805;SDS011;25082;50.870;0.022;2023-10-09T04:20:31;6.90;;;3.88;;
37805;SDS011;25082;50.870;0.022;2023-10-09T04:23:22;6.47;;;4.05;;
37805;SDS011;25082;50.870;0.022;2023-10-09T04:26:00;6.93;;;4.20;;
37805;SDS011;25082;50.870;0.022;2023-10-09T04:28:35;6.35;;;3.92;;
37805;SDS011;25082;50.870;0.022;2023-10-09T04:31:02;7.32;;;4.68;;
37805;SDS011;25082;50.870;0.022;2023-10-09T04:33:31;7.05;;;4.22;;
37805;SDS011;25082;50.870;0.022;2023-10-09T04:36:07;6.55;;;4.18;;
37805;SDS011;25082;50.870;0.022;2023-10-09T04:38:48;6.70;;;4.15;;
37805;SDS011;25082;50.870;0.022;2023-10-09T04:41:23;7.18;;;4.70;;
37805;SDS011;25082;50.870;0.022;2023-10-09T04:44:07;6.50;;;4.57;;
37805;SDS011;25082;50.870;0.022;2023-10-09T04:46:49;6.75;;;4.30;;
37805;SDS011;25082;50.870;0.022;2023-10-09T04:49:34;6.20;;;3.88;;
37805;SDS011;25082;50.870;0.022;2023-10-09T04:52:12;5.90;;;3.95;;
37805;SDS011;25082;50.870;0.022;2023-10-09T04:55:05;6.82;;;4.07;;
37805;SDS011;25082;50.870;0.022;2023-10-09T04:57:32;6.10;;;4.32;;
37805;SDS011;25082;50.870;0.022;2023-10-09T05:00:04;5.10;;;3.80;;
37805;SDS011;25082;50.870;0.022;2023-10-09T05:02:50;6.38;;;4.22;;
37805;SDS011;25082;50.870;0.022;2023-10-09T05:05:22;6.25;;;4.25;;
37805;SDS011;25082;50.870;0.022;2023-10-09T05:08:10;6.93;;;4.32;;
37805;SDS011;25082;50.870;0.022;2023-10-09T05:10:47;6.45;;;4.10;;
37805;SDS011;25082;50.870;0.022;2023-10-09T05:13:40;6.72;;;4.10;;
37805;SDS011;25082;50.870;0.022;2023-10-09T05:16:13;6.13;;;3.70;;
37805;SDS011;25082;50.870;0.022;2023-10-09T05:18:52;6.57;;;4.10;;
37805;SDS011;25082;50.870;0.022;2023-10-09T05:21:40;7.50;;;4.35;;
37805;SDS011;25082;50.870;0.022;2023-10-09T05:24:08;7.40;;;4.30;;
37805;SDS011;25082;50.870;0.022;2023-10-09T05:26:38;6.57;;;3.75;;
37805;SDS011;25082;50.870;0.022;2023-10-09T05:29:11;5.57;;;4.30;;
37805;SDS011;25082;50.870;0.022;2023-10-09T05:31:56;6.72;;;4.40;;
37805;SDS011;25082;50.870;0.022;2023-10-09T05:34:27;7.00;;;4.40;;
37805;SDS011;25082;50.870;0.022;2023-10-09T05:37:04;6.03;;;4.15;;
37805;SDS011;25082;50.870;0.022;2023-10-09T05:39:49;6.15;;;3.60;;
37805;SDS011;25082;50.870;0.022;2023-10-09T05:42:28;6.43;;;4.25;;
37805;SDS011;25082;50.870;0.022;2023-10-09T05:45:10;6.30;;;4.45;;
37805;SDS011;25082;50.870;0.022;2023-10-09T05:47:43;8.23;;;3.80;;
37805;SDS011;25082;50.870;0.022;2023-10-09T05:50:27;5.38;;;4.00;;
37805;SDS011;25082;50.870;0.022;2023-10-09T05:52:56;7.15;;;4.40;;
37805;SDS011;25082;50.870;0.022;2023-10-09T05:55:51;6.07;;;4.18;;
37805;SDS011;25082;50.870;0.022;2023-10-09T05:58:35;5.07;;;3.58;;
37805;SDS011;25082;50.870;0.022;2023-10-09T06:01:19;6.65;;;4.25;;
37805;SDS011;25082;50.870;0.022;2023-10-09T06:04:13;5.95;;;3.70;;
37805;SDS011;25082;50.870;0.022;2023-10-09T06:06:43;6.65;;;4.13;;
37805;SDS011;25082;50.870;0.022;2023-10-09T06:09:20;4.70;;;3.17;;
37805;SDS011;25082;50.870;0.022;2023-10-09T06:11:47;6.68;;;3.88;;
37805;SDS011;25082;50.870;0.022;2023-10-09T06:14:17;6.38;;;4.18;;
37805;SDS011;25082;50.870;0.022;2023-10-09T06:16:51;6.53;;;4.35;;
37805;SDS011;25082;50.870;0.022;2023-10-09T06:19:46;9.68;;;4.53;;
37805;SDS011;25082;50.870;0.022;2023-10-09T06:22:14;5.72;;;4.32;;
37805;SDS011;25082;50.870;0.022;2023-10-09T06:24:58;5.32;;;3.95;;
37805;SDS011;25082;50.870;0.022;2023-10-09T06:27:33;6.60;;;4.10;;
37805;SDS011;25082;50.870;0.022;2023-10-09T06:29:59;5.95;;;4.03;;
37805;SDS011;25082;50.870;0.022;2023-10-09T06:32:41;7.50;;;3.92;;
37805;SDS011;25082;50.870;0.022;2023-10-09T06:35:16;6.88;;;4.10;;
37805;SDS011;25082;50.870;0.022;2023-10-09T06:37:55;5.63;;;3.97;;
37805;SDS011;25082;50.870;0.022;2023-10-09T06:40:35;6.53;;;4.30;;
37805;SDS011;25082;50.870;0.022;2023-10-09T06:43:03;7.50;;;4.50;;
37805;SDS011;25082;50.870;0.022;2023-10-09T06:45:41;6.60;;;4.07;;
37805;SDS011;25082;50.870;0.022;2023-10-09T06:48:10;6.40;;;4.28;;
37805;SDS011;25082;50.870;0.022;2023-10-09T06:51:02;6.53;;;3.75;;
37805;SDS011;25082;50.870;0.022;2023-10-09T06:53:33;6.50;;;3.97;;
37805;SDS011;25082;50.870;0.022;2023-10-09T06:56:17;6.18;;;4.03;;
37805;SDS011;25082;50.870;0.022;2023-10-09T06:58:50;6.28;;;4.00;;
37805;SDS011;25082;50.870;0.022;2023-10-09T07:01:20;6.07;;;3.58;;
37805;SDS011;25082;50.870;0.022;2023-10-09T07:04:10;5.93;;;4.32;;
37805;SDS011;25082;50.870;0.022;2023-10-09T07:06:55;7.38;;;3.85;;
37805;SDS011;25082;50.870;0.022;2023-10-09T07:09:21;6.32;;;4.28;;
37805;SDS011;25082;50.870;0.022;2023-10-09T07:14:20;7.70;;;4.30;;
37805;SDS011;25082;50.870;0.022;2023-10-09T07:19:27;5.88;;;4.03;;
37805;SDS011;25082;50.870;0.022;2023-10-09T07:22:00;6.60;;;3.83;;
37805;SDS011;25082;50.870;0.022;2023-10-09T07:24:32;5.30;;;3.50;;
37805;SDS011;25082;50.870;0.022;2023-10-09T07:27:11;5.93;;;4.13;;
37805;SDS011;25082;50.870;0.022;2023-10-09T07:29:41;6.30;;;4.15;;
37805;SDS011;25082;50.870;0.022;2023-10-09T07:32:13;5.55;;;3.67;;
37805;SDS011;25082;50.870;0.022;2023-10-09T07:34:45;7.10;;;4.43;;
37805;SDS011;25082;50.870;0.022;2023-10-09T07:37:27;5.80;;;3.85;;
37805;SDS011;25082;50.870;0.022;2023-10-09T07:39:56;4.97;;;3.75;;
37805;SDS011;25082;50.870;0.022;2023-10-09T07:42:22;5.72;;;3.45;;
37805;SDS011;25082;50.870;0.022;2023-10-09T07:45:09;4.53;;;3.50;;
37805;SDS011;25082;50.870;0.022;2023-10-09T07:47:47;4.45;;;3.17;;
37805;SDS011;25082;50.870;0.022;2023-10-09T07:50:27;5.68;;;3.70;;
37805;SDS011;25082;50.870;0.022;2023-10-09T07:53:09;7.00;;;3.92;;
37805;SDS011;25082;50.870;0.022;2023-10-09T07:55:54;7.32;;;3.95;;
37805;SDS011;25082;50.870;0.022;2023-10-09T07:58:23;7.38;;;4.05;;
37805;SDS011;25082;50.870;0.022;2023-10-09T08:00:56;7.95;;;4.40;;
37805;SDS011;25082;50.870;0.022;2023-10-09T08:03:35;9.18;;;4.85;;
37805;SDS011;25082;50.870;0.022;2023-10-09T08:06:01;8.00;;;4.43;;
37805;SDS011;25082;50.870;0.022;2023-10-09T08:08:46;6.97;;;4.25;;
37805;SDS011;25082;50.870;0.022;2023-10-09T08:11:26;8.55;;;3.92;;
37805;SDS011;25082;50.870;0.022;2023-10-09T08:14:13;6.25;;;3.88;;
37805;SDS011;25082;50.870;0.022;2023-10-09T08:16:45;8.38;;;4.30;;
37805;SDS011;25082;50.870;0.022;2023-10-09T08:19:11;7.75;;;4.45;;
37805;SDS011;25082;50.870;0.022;2023-10-09T08:21:59;8.45;;;4.88;;
37805;SDS011;25082;50.870;0.022;2023-10-09T08:24:43;6.40;;;3.78;;
37805;SDS011;25082;50.870;0.022;2023-10-09T08:27:17;5.65;;;3.75;;
37805;SDS011;25082;50.870;0.022;2023-10-09T08:30:01;13.13;;;4.47;;
37805;SDS011;25082;50.870;0.022;2023-10-09T08:32:47;8.15;;;4.25;;
37805;SDS011;25082;50.870;0.022;2023-10-09T08:35:27;11.35;;;7.05;;
37805;SDS011;25082;50.870;0.022;2023-10-09T08:38:01;12.90;;;7.03;;
37805;SDS011;25082;50.870;0.022;2023-10-09T08:40:37;14.07;;;9.23;;
37805;SDS011;25082;50.870;0.022;2023-10-09T08:43:10;16.13;;;7.88;;
37805;SDS011;25082;50.870;0.022;2023-10-09T08:45:46;17.13;;;8.02;;
37805;SDS011;25082;50.870;0.022;2023-10-09T08:48:18;19.38;;;8.23;;
37805;SDS011;25082;50.870;0.022;2023-10-09T08:50:45;13.27;;;7.82;;
37805;SDS011;25082;50.870;0.022;2023-10-09T08:53:15;9.65;;;6.13;;
37805;SDS011;25082;50.870;0.022;2023-10-09T08:55:43;12.38;;;6.32;;
37805;SDS011;25082;50.870;0.022;2023-10-09T08:58:11;14.80;;;5.93;;
37805;SDS011;25082;50.870;0.022;2023-10-09T09:00:50;10.25;;;5.85;;
37805;SDS011;25082;50.870;0.022;2023-10-09T09:03:17;9.68;;;5.55;;
37805;SDS011;25082;50.870;0.022;2023-10-09T09:05:57;12.68;;;6.50;;
37805;SDS011;25082;50.870;0.022;2023-10-09T09:08:27;9.38;;;5.82;;
37805;SDS011;25082;50.870;0.022;2023-10-09T09:10:58;8.63;;;5.00;;
37805;SDS011;25082;50.870;0.022;2023-10-09T09:16:29;10.43;;;5.38;;
37805;SDS011;25082;50.870;0.022;2023-10-09T09:18:57;16.35;;;7.80;;
37805;SDS011;25082;50.870;0.022;2023-10-09T09:21:42;18.33;;;7.22;;
37805;SDS011;25082;50.870;0.022;2023-10-09T09:24:13;12.63;;;6.95;;
37805;SDS011;25082;50.870;0.022;2023-10-09T09:26:45;18.05;;;6.60;;
37805;SDS011;25082;50.870;0.022;2023-10-09T09:29:11;13.85;;;6.10;;
37805;SDS011;25082;50.870;0.022;2023-10-09T09:31:55;9.43;;;5.55;;
37805;SDS011;25082;50.870;0.022;2023-10-09T09:34:44;14.63;;;5.93;;
37805;SDS011;25082;50.870;0.022;2023-10-09T09:37:12;8.18;;;5.20;;
37805;SDS011;25082;50.870;0.022;2023-10-09T09:39:47;9.38;;;5.55;;
37805;SDS011;25082;50.870;0.022;2023-10-09T09:42:16;11.98;;;6.32;;
37805;SDS011;25082;50.870;0.022;2023-10-09T09:44:49;8.23;;;4.82;;
37805;SDS011;25082;50.870;0.022;2023-10-09T09:47:17;10.38;;;5.63;;
37805;SDS011;25082;50.870;0.022;2023-10-09T09:49:51;10.65;;;5.22;;
37805;SDS011;25082;50.870;0.022;2023-10-09T09:52:18;14.18;;;5.80;;
37805;SDS011;25082;50.870;0.022;2023-10-09T09:54:49;14.80;;;5.93;;
37805;SDS011;25082;50.870;0.022;2023-10-09T09:57:15;12.45;;;6.45;;
37805;SDS011;25082;50.870;0.022;2023-10-09T09:59:51;9.25;;;5.70;;
37805;SDS011;25082;50.870;0.022;2023-10-09T10:02:26;12.27;;;5.35;;
37805;SDS011;25082;50.870;0.022;2023-10-09T10:04:58;17.75;;;5.82;;
37805;SDS011;25082;50.870;0.022;2023-10-09T10:07:28;10.00;;;5.32;;
37805;SDS011;25082;50.870;0.022;2023-10-09T10:10:30;12.27;;;4.80;;
37805;SDS011;25082;50.870;0.022;2023-10-09T10:13:04;9.32;;;4.97;;
37805;SDS011;25082;50.870;0.022;2023-10-09T10:18:33;16.10;;;9.73;;
37805;SDS011;25082;50.870;0.022;2023-10-09T10:21:18;13.38;;;7.88;;
37805;SDS011;25082;50.870;0.022;2023-10-09T10:24:01;14.00;;;7.97;;
37805;SDS011;25082;50.870;0.022;2023-10-09T10:26:36;19.13;;;8.38;;
37805;SDS011;25082;50.870;0.022;2023-10-09T10:32:02;18.13;;;7.38;;
37805;SDS011;25082;50.870;0.022;2023-10-09T10:34:53;13.38;;;7.50;;
37805;SDS011;25082;50.870;0.022;2023-10-09T10:37:35;10.30;;;6.20;;
37805;SDS011;25082;50.870;0.022;2023-10-09T10:40:09;11.50;;;6.53;;
37805;SDS011;25082;50.870;0.022;2023-10-09T10:43:01;13.23;;;6.22;;
37805;SDS011;25082;50.870;0.022;2023-10-09T10:45:44;12.05;;;6.35;;
37805;SDS011;25082;50.870;0.022;2023-10-09T10:48:10;11.57;;;6.22;;
37805;SDS011;25082;50.870;0.022;2023-10-09T10:50:57;9.15;;;5.45;;
37805;SDS011;25082;50.870;0.022;2023-10-09T10:53:23;9.82;;;6.38;;
37805;SDS011;25082;50.870;0.022;2023-10-09T10:56:02;9.05;;;5.65;;
37805;SDS011;25082;50.870;0.022;2023-10-09T10:58:52;11.48;;;5.15;;
37805;SDS011;25082;50.870;0.022;2023-10-09T11:01:36;10.13;;;5.78;;
37805;SDS011;25082;50.870;0.022;2023-10-09T11:04:18;11.20;;;5.28;;
37805;SDS011;25082;50.870;0.022;2023-10-09T11:07:01;10.18;;;5.03;;
37805;SDS011;25082;50.870;0.022;2023-10-09T11:09:50;12.65;;;5.80;;
37805;SDS011;25082;50.870;0.022;2023-10-09T11:12:29;9.10;;;4.75;;
37805;SDS011;25082;50.870;0.022;2023-10-09T11:15:07;11.35;;;5.45;;
37805;SDS011;25082;50.870;0.022;2023-10-09T11:18:00;12.60;;;5.63;;
37805;SDS011;25082;50.870;0.022;2023-10-09T11:20:35;8.07;;;4.57;;
37805;SDS011;25082;50.870;0.022;2023-10-09T11:23:03;8.63;;;5.05;;
37805;SDS011;25082;50.870;0.022;2023-10-09T11:25:39;15.30;;;4.90;;
37805;SDS011;25082;50.870;0.022;2023-10-09T11:28:22;9.38;;;4.75;;
37805;SDS011;25082;50.870;0.022;2023-10-09T11:31:06;9.35;;;5.63;;
37805;SDS011;25082;50.870;0.022;2023-10-09T11:33:47;8.85;;;5.30;;
37805;SDS011;25082;50.870;0.022;2023-10-09T11:36:16;8.45;;;4.68;;
37805;SDS011;25082;50.870;0.022;2023-10-09T11:38:42;12.13;;;5.32;;
37805;SDS011;25082;50.870;0.022;2023-10-09T11:41:14;9.65;;;5.25;;
37805;SDS011;25082;50.870;0.022;2023-10-09T11:43:53;8.43;;;4.90;;
37805;SDS011;25082;50.870;0.022;2023-10-09T11:46:20;10.88;;;4.65;;
37805;SDS011;25082;50.870;0.022;2023-10-09T11:49:04;7.03;;;4.00;;
37805;SDS011;25082;50.870;0.022;2023-10-09T11:51:46;8.48;;;4.53;;
37805;SDS011;25082;50.870;0.022;2023-10-09T11:54:30;9.88;;;5.20;;
37805;SDS011;25082;50.870;0.022;2023-10-09T11:56:56;7.75;;;4.53;;
37805;SDS011;25082;50.870;0.022;2023-10-09T11:59:26;8.00;;;4.70;;
37805;SDS011;25082;50.870;0.022;2023-10-09T12:01:52;9.55;;;4.88;;
37805;SDS011;25082;50.870;0.022;2023-10-09T12:04:19;10.18;;;5.03;;
37805;SDS011;25082;50.870;0.022;2023-10-09T12:06:55;9.55;;;4.97;;
37805;SDS011;25082;50.870;0.022;2023-10-09T12:09:31;10.50;;;4.70;;
37805;SDS011;25082;50.870;0.022;2023-10-09T12:12:00;9.95;;;5.10;;
37805;SDS011;25082;50.870;0.022;2023-10-09T12:14:27;9.60;;;4.45;;
37805;SDS011;25082;50.870;0.022;2023-10-09T12:16:58;8.80;;;4.40;;
37805;SDS011;25082;50.870;0.022;2023-10-09T12:19:32;9.05;;;4.80;;
37805;SDS011;25082;50.870;0.022;2023-10-09T12:22:02;10.05;;;5.10;;
37805;SDS011;25082;50.870;0.022;2023-10-09T12:24:29;11.02;;;4.72;;
37805;SDS011;25082;50.870;0.022;2023-10-09T12:26:55;14.55;;;5.40;;
37805;SDS011;25082;50.870;0.022;2023-10-09T12:29:22;11.48;;;5.22;;
37805;SDS011;25082;50.870;0.022;2023-10-09T12:31:49;12.05;;;5.68;;
37805;SDS011;25082;50.870;0.022;2023-10-09T12:34:23;11.43;;;4.88;;
37805;SDS011;25082;50.870;0.022;2023-10-09T12:36:54;8.02;;;4.28;;
37805;SDS011;25082;50.870;0.022;2023-10-09T12:39:20;9.77;;;4.78;;
37805;SDS011;25082;50.870;0.022;2023-10-09T12:41:49;11.02;;;4.82;;
37805;SDS011;25082;50.870;0.022;2023-10-09T12:44:18;10.48;;;5.05;;
37805;SDS011;25082;50.870;0.022;2023-10-09T12:46:47;9.18;;;4.95;;
37805;SDS011;25082;50.870;0.022;2023-10-09T12:49:19;11.57;;;4.88;;
37805;SDS011;25082;50.870;0.022;2023-10-09T12:51:52;13.55;;;5.15;;
37805;SDS011;25082;50.870;0.022;2023-10-09T12:54:18;13.82;;;6.00;;
37805;SDS011;25082;50.870;0.022;2023-10-09T12:56:54;10.15;;;5.57;;
37805;SDS011;25082;50.870;0.022;2023-10-09T12:59:20;6.55;;;4.32;;
37805;SDS011;25082;50.870;0.022;2023-10-09T13:01:47;12.73;;;5.47;;
37805;SDS011;25082;50.870;0.022;2023-10-09T13:04:33;10.63;;;5.53;;
37805;SDS011;25082;50.870;0.022;2023-10-09T13:07:00;9.60;;;5.38;;
37805;SDS011;25082;50.870;0.022;2023-10-09T13:09:29;9.60;;;5.47;;
37805;SDS011;25082;50.870;0.022;2023-10-09T13:12:07;11.77;;;5.57;;
37805;SDS011;25082;50.870;0.022;2023-10-09T13:14:35;9.57;;;4.93;;
37805;SDS011;25082;50.870;0.022;2023-10-09T13:17:01;8.20;;;4.80;;
37805;SDS011;25082;50.870;0.022;2023-10-09T13:19:35;12.68;;;5.50;;
37805;SDS011;25082;50.870;0.022;2023-10-09T13:22:01;9.80;;;5.65;;
37805;SDS011;25082;50.870;0.022;2023-10-09T13:24:29;11.02;;;5.68;;
37805;SDS011;25082;50.870;0.022;2023-10-09T13:26:56;9.68;;;5.80;;
37805;SDS011;25082;50.870;0.022;2023-10-09T13:29:23;12.02;;;5.32;;
37805;SDS011;25082;50.870;0.022;2023-10-09T13:31:49;11.98;;;6.30;;
37805;SDS011;25082;50.870;0.022;2023-10-09T13:34:22;8.73;;;5.35;;
37805;SDS011;25082;50.870;0.022;2023-10-09T13:36:53;10.63;;;5.72;;
37805;SDS011;25082;50.870;0.022;2023-10-09T13:39:19;9.30;;;5.53;;
37805;SDS011;25082;50.870;0.022;2023-10-09T13:44:27;11.77;;;5.75;;
37805;SDS011;25082;50.870;0.022;2023-10-09T13:46:55;10.75;;;5.88;;
37805;SDS011;25082;50.870;0.022;2023-10-09T13:49:30;10.68;;;5.63;;
37805;SDS011;25082;50.870;0.022;2023-10-09T13:51:57;9.65;;;5.20;;
37805;SDS011;25082;50.870;0.022;2023-10-09T13:54:23;10.27;;;5.25;;
37805;SDS011;25082;50.870;0.022;2023-10-09T13:57:03;9.90;;;5.53;;
37805;SDS011;25082;50.870;0.022;2023-10-09T13:59:30;8.18;;;4.50;;
37805;SDS011;25082;50.870;0.022;2023-10-09T14:01:56;9.43;;;5.00;;
37805;SDS011;25082;50.870;0.022;2023-10-09T14:04:24;9.38;;;4.50;;
37805;SDS011;25082;50.870;0.022;2023-10-09T14:06:51;10.25;;;4.80;;
37805;SDS011;25082;50.870;0.022;2023-10-09T14:09:26;8.80;;;4.47;;
37805;SDS011;25082;50.870;0.022;2023-10-09T14:11:56;12.02;;;4.85;;
37805;SDS011;25082;50.870;0.022;2023-10-09T14:14:36;7.13;;;4.55;;
37805;SDS011;25082;50.870;0.022;2023-10-09T14:17:19;11.60;;;4.43;;
37805;SDS011;25082;50.870;0.022;2023-10-09T14:19:53;11.05;;;4.85;;
37805;SDS011;25082;50.870;0.022;2023-10-09T14:22:21;6.88;;;4.18;;
37805;SDS011;25082;50.870;0.022;2023-10-09T14:24:54;6.35;;;4.00;;
37805;SDS011;25082;50.870;0.022;2023-10-09T14:27:21;7.82;;;4.53;;
37805;SDS011;25082;50.870;0.022;2023-10-09T14:29:51;7.55;;;4.13;;
37805;SDS011;25082;50.870;0.022;2023-10-09T14:32:21;6.15;;;3.95;;
37805;SDS011;25082;50.870;0.022;2023-10-09T14:34:53;8.30;;;4.55;;
37805;SDS011;25082;50.870;0.022;2023-10-09T14:37:20;8.60;;;4.68;;
37805;SDS011;25082;50.870;0.022;2023-10-09T14:39:46;7.60;;;4.45;;
37805;SDS011;25082;50.870;0.022;2023-10-09T14:42:15;7.25;;;4.30;;
37805;SDS011;25082;50.870;0.022;2023-10-09T14:44:42;8.40;;;4.30;;
37805;SDS011;25082;50.870;0.022;2023-10-09T14:47:10;6.78;;;4.20;;
37805;SDS011;25082;50.870;0.022;2023-10-09T14:49:36;7.82;;;4.10;;
37805;SDS011;25082;50.870;0.022;2023-10-09T14:52:11;6.82;;;3.70;;
37805;SDS011;25082;50.870;0.022;2023-10-09T14:54:42;5.10;;;3.88;;
37805;SDS011;25082;50.870;0.022;2023-10-09T14:57:09;9.13;;;4.45;;
37805;SDS011;25082;50.870;0.022;2023-10-09T14:59:36;8.40;;;4.15;;
37805;SDS011;25082;50.870;0.022;2023-10-09T15:02:03;6.88;;;3.90;;
37805;SDS011;25082;50.870;0.022;2023-10-09T15:04:30;7.05;;;3.97;;
37805;SDS011;25082;50.870;0.022;2023-10-09T15:07:05;6.03;;;3.78;;
37805;SDS011;25082;50.870;0.022;2023-10-09T15:09:34;10.18;;;4.18;;
37805;SDS011;25082;50.870;0.022;2023-10-09T15:12:01;7.32;;;3.67;;
37805;SDS011;25082;50.870;0.022;2023-10-09T15:14:28;5.28;;;3.15;;
37805;SDS011;25082;50.870;0.022;2023-10-09T15:16:53;7.55;;;4.28;;
37805;SDS011;25082;50.870;0.022;2023-10-09T15:19:19;6.30;;;4.03;;
37805;SDS011;25082;50.870;0.022;2023-10-09T15:21:54;8.50;;;3.70;;
37805;SDS011;25082;50.870;0.022;2023-10-09T15:24:24;6.85;;;3.63;;
37805;SDS011;25082;50.870;0.022;2023-10-09T15:26:52;9.23;;;3.97;;
37805;SDS011;25082;50.870;0.022;2023-10-09T15:29:18;9.40;;;4.25;;
37805;SDS011;25082;50.870;0.022;2023-10-09T15:31:48;7.28;;;3.80;;
37805;SDS011;25082;50.870;0.022;2023-10-09T15:34:17;8.20;;;4.60;;
37805;SDS011;25082;50.870;0.022;2023-10-09T15:36:45;7.97;;;4.63;;
37805;SDS011;25082;50.870;0.022;2023-10-09T15:39:14;6.57;;;4.28;;
37805;SDS011;25082;50.870;0.022;2023-10-09T15:41:47;6.95;;;4.43;;
37805;SDS011;25082;50.870;0.022;2023-10-09T15:44:14;8.52;;;4.75;;
37805;SDS011;25082;50.870;0.022;2023-10-09T15:46:40;10.38;;;4.15;;
37805;SDS011;25082;50.870;0.022;2023-10-09T15:49:08;10.15;;;4.18;;